createdAt,value
2017-07-04T04:26:42.907Z,3.90
2017-07-04T12:42:09.993Z,12.20
2017-07-04T12:43:12.733Z,12.07
2017-07-04T12:44:15.418Z,12.07
2017-07-04T12:45:19.377Z,11.88
2017-07-04T12:46:21.957Z,11.61
2017-07-04T12:47:24.545Z,11.47
2017-07-04T12:48:27.145Z,11.61
2017-07-04T12:49:29.893Z,11.64
2017-07-04T12:50:33.089Z,11.42
2017-07-04T12:51:35.656Z,11.25
2017-07-04T12:52:38.236Z,10.89
2017-07-04T12:53:40.778Z,10.59
2017-07-04T12:54:43.439Z,10.30
2017-07-04T12:55:45.985Z,10.17
2017-07-04T12:56:48.520Z,10.12
2017-07-04T12:57:51.261Z,9.89
2017-07-04T12:58:53.912Z,9.90
2017-07-04T12:59:56.572Z,9.87
2017-07-04T13:00:59.118Z,9.83
2017-07-04T13:02:01.633Z,9.50
2017-07-04T13:03:04.268Z,9.46
2017-07-04T13:04:06.847Z,9.24
2017-07-04T13:05:09.351Z,9.26
2017-07-04T13:06:11.882Z,9.24
2017-07-04T13:07:14.724Z,9.21
2017-07-04T13:08:17.417Z,9.11
2017-07-04T13:09:20.113Z,9.10
2017-07-04T13:10:22.785Z,9.05
2017-07-04T13:11:25.394Z,8.98
2017-07-04T13:12:28.047Z,8.95
2017-07-04T13:13:30.546Z,8.73
2017-07-04T13:14:33.126Z,8.73
2017-07-04T13:15:35.618Z,8.52
2017-07-04T13:16:38.219Z,8.47
2017-07-04T13:17:40.983Z,8.30
2017-07-04T13:18:43.639Z,8.20
2017-07-04T13:19:46.109Z,8.22
2017-07-04T13:20:52.762Z,8.34
2017-07-04T13:21:55.309Z,8.34
2017-07-04T13:22:57.896Z,8.20
2017-07-04T13:24:00.586Z,8.18
2017-07-04T13:25:03.255Z,8.16
2017-07-04T13:26:06.895Z,8.20
2017-07-04T13:27:09.564Z,8.18
2017-07-04T13:28:12.229Z,8.19
2017-07-04T13:29:14.914Z,8.25
2017-07-04T13:30:17.581Z,8.36
2017-07-04T13:31:20.255Z,8.26
2017-07-04T13:32:22.844Z,8.16
2017-07-04T13:33:25.423Z,8.19
2017-07-04T13:34:28.080Z,8.07
2017-07-04T13:35:30.755Z,8.00
2017-07-04T13:36:33.435Z,7.92
2017-07-04T13:37:36.120Z,7.90
2017-07-04T13:38:38.793Z,7.86
2017-07-04T13:39:41.356Z,7.63
2017-07-04T13:40:43.927Z,7.58
2017-07-04T13:41:46.472Z,7.55
2017-07-04T13:42:49.080Z,7.48
2017-07-04T13:43:51.601Z,7.49
2017-07-04T13:44:54.262Z,7.46
2017-07-04T13:45:56.739Z,7.45
2017-07-04T13:46:59.228Z,7.55
2017-07-04T13:48:01.910Z,7.61
2017-07-04T13:49:04.489Z,7.61
2017-07-04T13:50:07.118Z,7.57
2017-07-04T13:51:09.630Z,7.58
2017-07-04T13:52:12.232Z,7.63
2017-07-04T13:53:14.911Z,7.63
2017-07-04T13:54:17.581Z,7.60
2017-07-04T13:55:20.249Z,7.60
2017-07-04T13:56:22.916Z,7.53
2017-07-04T13:57:25.391Z,7.45
2017-07-04T13:58:27.985Z,7.45
2017-07-04T13:59:30.733Z,7.40
2017-07-04T14:00:33.288Z,7.45
2017-07-04T14:01:36.004Z,7.39
2017-07-04T14:02:38.582Z,7.43
2017-07-04T14:03:41.165Z,7.48
2017-07-04T14:04:43.744Z,7.49
2017-07-04T14:05:46.414Z,7.45
2017-07-04T14:06:49.148Z,7.42
2017-07-04T14:07:51.835Z,7.42
2017-07-04T14:08:54.520Z,7.42
2017-07-04T14:09:57.032Z,7.46
2017-07-04T14:10:59.665Z,7.53
2017-07-04T14:12:02.185Z,7.57
2017-07-04T14:13:04.760Z,7.60
2017-07-04T14:14:07.339Z,7.58
2017-07-04T14:15:09.926Z,7.61
2017-07-04T14:16:12.619Z,7.63
2017-07-04T14:17:15.180Z,7.63
2017-07-04T14:18:17.883Z,7.58
2017-07-04T14:19:20.562Z,7.57
2017-07-04T14:20:23.273Z,7.49
2017-07-04T14:21:25.956Z,7.50
2017-07-04T14:22:29.179Z,7.45
2017-07-04T14:23:31.707Z,7.46
2017-07-04T14:24:34.287Z,7.48
2017-07-04T14:25:37.431Z,7.50
2017-07-04T14:26:39.945Z,7.50
2017-07-04T14:27:42.516Z,7.46
2017-07-04T14:28:45.167Z,7.46
2017-07-04T14:29:47.686Z,7.46
2017-07-04T14:30:50.283Z,7.48
2017-07-04T14:31:52.804Z,7.49
2017-07-04T14:32:55.317Z,7.37
2017-07-04T14:33:57.846Z,7.35
2017-07-04T14:35:00.427Z,7.27
2017-07-04T14:36:02.947Z,7.23
2017-07-04T14:37:05.477Z,7.03
2017-07-04T14:38:08.057Z,7.10
2017-07-04T14:39:11.678Z,7.07
2017-07-04T14:40:14.253Z,7.06
2017-07-04T14:41:16.840Z,7.03
2017-07-04T14:42:19.412Z,7.06
2017-07-04T14:43:21.985Z,6.89
2017-07-04T14:44:24.562Z,6.99
2017-07-04T14:45:27.254Z,6.98
2017-07-04T14:46:29.820Z,7.02
2017-07-04T14:47:32.490Z,7.09
2017-07-04T14:48:35.164Z,7.09
2017-07-04T14:49:37.833Z,7.24
2017-07-04T14:50:40.504Z,7.17
2017-07-04T14:51:43.081Z,7.13
2017-07-04T14:52:45.756Z,7.17
2017-07-04T14:53:48.305Z,7.21
2017-07-04T14:54:50.891Z,7.23
2017-07-04T14:55:53.571Z,7.23
2017-07-04T14:56:56.277Z,7.34
2017-07-04T14:57:58.983Z,7.31
2017-07-04T14:59:01.770Z,7.46
2017-07-04T15:00:04.242Z,7.52
2017-07-04T15:01:06.826Z,7.60
2017-07-04T15:02:10.156Z,7.57
2017-07-04T15:03:12.817Z,7.55
2017-07-04T15:04:16.663Z,7.72
2017-07-04T15:05:19.204Z,7.68
2017-07-04T15:06:21.926Z,7.82
2017-07-04T15:07:24.433Z,7.77
2017-07-04T15:08:27.006Z,7.74
2017-07-04T15:09:29.624Z,7.83
2017-07-04T15:10:32.258Z,7.98
2017-07-04T15:11:34.945Z,8.11
2017-07-04T15:12:37.508Z,8.16
2017-07-04T15:13:40.181Z,8.29
2017-07-04T15:14:42.688Z,8.23
2017-07-04T15:15:45.321Z,8.34
2017-07-04T15:16:48.023Z,8.36
2017-07-04T15:17:50.722Z,8.30
2017-07-04T15:18:53.405Z,8.34
2017-07-04T15:19:55.973Z,8.36
2017-07-04T15:20:58.560Z,8.43
2017-07-04T15:22:01.150Z,8.58
2017-07-04T15:23:03.735Z,8.56
2017-07-04T15:24:06.334Z,8.62
2017-07-04T15:25:08.905Z,8.53
2017-07-04T15:26:14.272Z,8.66
2017-07-04T15:27:16.953Z,8.63
2017-07-04T15:28:21.179Z,8.70
2017-07-04T15:29:23.739Z,8.83
2017-07-04T15:30:26.274Z,8.76
2017-07-04T15:31:28.763Z,8.74
2017-07-04T15:32:31.341Z,8.63
2017-07-04T15:33:33.883Z,8.70
2017-07-04T15:34:36.414Z,8.76
2017-07-04T15:35:38.981Z,8.71
2017-07-04T15:36:41.590Z,8.79
2017-07-04T15:37:44.278Z,8.84
2017-07-04T15:38:49.192Z,8.68
2017-07-04T15:39:51.076Z,8.76
2017-07-04T15:40:53.760Z,8.71
2017-07-04T15:41:56.538Z,8.62
2017-07-04T15:44:05.243Z,8.48
2017-07-04T15:45:09.471Z,8.45
2017-07-04T15:46:15.582Z,8.45
2017-07-04T15:47:21.068Z,8.50
2017-07-04T15:48:25.408Z,8.53
2017-07-04T15:49:29.388Z,8.55
2017-07-04T15:51:13.092Z,8.68
2017-07-04T15:52:15.581Z,8.74
2017-07-04T15:53:18.155Z,8.77
2017-07-04T15:54:20.643Z,8.68
2017-07-04T15:55:23.227Z,8.63
2017-07-04T15:56:25.922Z,8.71
2017-07-04T15:57:28.494Z,8.80
2017-07-04T15:58:31.077Z,8.94
2017-07-04T15:59:33.757Z,8.95
2017-07-04T16:00:36.506Z,8.87
2017-07-04T16:01:39.215Z,8.83
2017-07-04T16:02:41.884Z,8.56
2017-07-04T16:03:44.501Z,8.40
2017-07-04T16:04:47.099Z,8.44
2017-07-04T16:05:49.677Z,8.30
2017-07-04T16:06:52.351Z,8.22
2017-07-04T16:07:54.935Z,8.19
2017-07-04T16:08:57.519Z,8.19
2017-07-04T16:10:00.103Z,8.07
2017-07-04T16:11:02.778Z,8.04
2017-07-04T16:12:05.369Z,7.90
2017-07-04T16:13:07.890Z,7.90
2017-07-04T16:14:10.496Z,7.86
2017-07-04T16:15:13.097Z,7.80
2017-07-04T16:16:15.617Z,7.77
2017-07-04T16:17:18.110Z,7.60
2017-07-04T16:18:20.650Z,7.58
2017-07-04T16:19:23.177Z,7.57
2017-07-04T16:20:25.671Z,7.55
2017-07-04T16:21:28.346Z,7.53
2017-07-04T16:22:30.817Z,7.48
2017-07-04T16:23:33.355Z,7.37
2017-07-04T16:24:36.050Z,7.23
2017-07-04T16:25:38.746Z,7.21
2017-07-04T16:26:41.442Z,7.27
2017-07-04T16:27:44.104Z,7.31
2017-07-04T16:28:46.792Z,7.32
2017-07-04T16:29:49.496Z,7.27
2017-07-04T16:30:52.180Z,7.30
2017-07-04T16:31:54.841Z,7.30
2017-07-04T16:32:57.416Z,7.32
2017-07-04T16:33:59.989Z,7.40
2017-07-04T16:35:02.672Z,7.45
2017-07-04T16:36:05.235Z,7.34
2017-07-04T16:37:07.927Z,7.24
2017-07-04T16:38:10.637Z,7.25
2017-07-04T16:39:13.265Z,7.34
2017-07-04T16:40:15.947Z,7.52
2017-07-04T16:41:18.508Z,7.48
2017-07-04T16:42:21.132Z,7.46
2017-07-04T16:43:23.672Z,7.52
2017-07-04T16:44:26.212Z,7.57
2017-07-04T16:45:28.788Z,7.55
2017-07-04T16:46:31.518Z,7.57
2017-07-04T16:47:34.192Z,7.58
2017-07-04T16:48:36.962Z,7.52
2017-07-04T16:49:39.633Z,7.48
2017-07-04T16:50:42.306Z,7.31
2017-07-04T16:51:44.990Z,7.32
2017-07-04T16:52:47.665Z,7.28
2017-07-04T16:53:50.242Z,7.21
2017-07-04T16:54:52.815Z,7.24
2017-07-04T16:55:55.396Z,7.12
2017-07-04T16:56:57.998Z,7.15
2017-07-04T16:58:00.630Z,7.27
2017-07-04T16:59:03.161Z,7.32
2017-07-04T17:00:05.770Z,7.24
2017-07-04T17:01:13.009Z,7.27
2017-07-04T17:02:18.974Z,7.09
2017-07-04T17:03:21.416Z,7.05
2017-07-04T17:04:24.110Z,6.87
2017-07-04T17:05:26.735Z,7.03
2017-07-04T17:06:29.355Z,6.99
2017-07-04T17:07:31.868Z,7.03
2017-07-04T17:08:34.541Z,7.05
2017-07-04T17:09:38.152Z,7.06
2017-07-04T17:10:40.886Z,7.05
2017-07-04T17:11:43.582Z,6.87
2017-07-04T17:12:46.164Z,6.97
2017-07-04T17:13:48.845Z,7.02
2017-07-04T17:14:51.503Z,6.99
2017-07-04T17:15:54.164Z,6.91
2017-07-04T17:16:56.730Z,6.99
2017-07-04T17:17:59.412Z,6.98
2017-07-04T17:19:02.079Z,7.07
2017-07-04T17:20:04.836Z,7.06
2017-07-04T17:21:07.506Z,6.99
2017-07-04T17:22:11.269Z,6.87
2017-07-04T17:23:13.893Z,6.84
2017-07-04T17:24:16.382Z,6.80
2017-07-04T17:25:19.025Z,6.74
2017-07-04T17:26:21.676Z,6.70
2017-07-04T17:27:24.306Z,6.44
2017-07-04T17:28:27.567Z,6.48
2017-07-04T17:29:30.041Z,6.43
2017-07-04T17:30:33.542Z,6.40
2017-07-04T17:31:36.112Z,6.25
2017-07-04T17:32:38.743Z,6.25
2017-07-04T17:33:41.352Z,6.17
2017-07-04T17:34:43.987Z,6.08
2017-07-04T17:35:46.604Z,6.06
2017-07-04T17:36:49.227Z,6.18
2017-07-04T17:37:51.806Z,6.03
2017-07-04T17:38:54.576Z,6.12
2017-07-04T17:39:57.171Z,6.09
2017-07-04T17:40:59.846Z,6.06
2017-07-04T17:42:02.408Z,5.97
2017-07-04T17:43:04.994Z,5.99
2017-07-04T17:44:07.583Z,5.97
2017-07-04T17:45:10.187Z,6.00
2017-07-04T17:46:12.766Z,6.04
2017-07-04T17:47:15.444Z,6.01
2017-07-04T17:48:18.100Z,5.86
2017-07-04T17:49:20.795Z,5.97
2017-07-04T17:50:23.453Z,5.91
2017-07-04T17:51:26.133Z,5.93
2017-07-04T17:52:28.820Z,5.85
2017-07-04T17:53:31.486Z,5.78
2017-07-04T17:54:34.213Z,5.74
2017-07-04T17:55:36.879Z,5.74
2017-07-04T17:56:39.489Z,5.64
2017-07-04T17:57:41.981Z,5.67
2017-07-04T17:58:44.687Z,5.68
2017-07-04T17:59:47.254Z,5.51
2017-07-04T18:00:49.775Z,5.57
2017-07-04T18:01:52.291Z,5.56
2017-07-04T18:02:54.807Z,5.53
2017-07-04T18:03:57.391Z,5.57
2017-07-04T18:05:00.023Z,5.61
2017-07-04T18:06:02.633Z,5.75
2017-07-04T18:07:05.297Z,5.71
2017-07-04T18:08:07.862Z,5.79
2017-07-04T18:09:10.441Z,5.79
2017-07-04T18:10:13.123Z,5.64
2017-07-04T18:11:15.758Z,5.64
2017-07-04T18:12:18.270Z,5.54
2017-07-04T18:13:20.982Z,5.56
2017-07-04T18:14:23.613Z,5.58
2017-07-04T18:15:26.198Z,5.53
2017-07-04T18:16:28.904Z,5.49
2017-07-04T18:17:31.490Z,5.53
2017-07-04T18:18:34.077Z,5.54
2017-07-04T18:19:36.774Z,5.54
2017-07-04T18:20:39.335Z,5.53
2017-07-04T18:21:42.038Z,5.54
2017-07-04T18:22:44.974Z,5.49
2017-07-04T18:23:47.672Z,5.38
2017-07-04T18:24:50.358Z,5.31
2017-07-04T18:25:52.946Z,5.33
2017-07-04T18:26:55.543Z,5.30
2017-07-04T18:27:58.067Z,5.27
2017-07-04T18:29:00.716Z,5.33
2017-07-04T18:30:03.411Z,5.33
2017-07-04T18:31:06.081Z,5.30
2017-07-04T18:32:08.763Z,5.30
2017-07-04T18:33:11.449Z,5.28
2017-07-04T18:34:15.654Z,5.17
2017-07-04T18:35:18.309Z,5.25
2017-07-04T18:36:20.879Z,5.25
2017-07-04T18:37:23.442Z,5.10
2017-07-04T18:38:25.931Z,5.10
2017-07-04T18:39:28.463Z,5.13
2017-07-04T18:40:31.526Z,5.17
2017-07-04T18:41:34.026Z,5.15
2017-07-04T18:42:36.712Z,5.12
2017-07-04T18:43:39.284Z,5.00
2017-07-04T18:44:41.974Z,5.09
2017-07-04T18:45:44.582Z,5.07
2017-07-04T18:46:47.121Z,5.17
2017-07-04T18:47:49.747Z,5.10
2017-07-04T18:48:52.328Z,5.20
2017-07-04T18:49:54.915Z,5.25
2017-07-04T18:50:57.620Z,5.35
2017-07-04T18:52:00.876Z,5.33
2017-07-04T18:53:03.541Z,5.24
2017-07-04T18:54:06.259Z,5.31
2017-07-04T18:55:08.855Z,5.33
2017-07-04T18:56:11.524Z,5.20
2017-07-04T18:57:14.161Z,5.12
2017-07-04T18:58:16.739Z,5.15
2017-07-04T18:59:19.271Z,5.13
2017-07-04T19:00:21.954Z,5.17
2017-07-04T19:01:24.578Z,5.12
2017-07-04T19:02:27.175Z,5.04
2017-07-04T19:03:29.771Z,5.02
2017-07-04T19:04:32.245Z,5.00
2017-07-04T19:05:35.009Z,4.91
2017-07-04T19:06:37.481Z,5.02
2017-07-04T19:07:40.006Z,5.02
2017-07-04T19:08:42.622Z,5.13
2017-07-04T19:09:45.301Z,5.12
2017-07-04T19:10:47.802Z,5.04
2017-07-04T19:11:50.483Z,5.00
2017-07-04T19:12:53.200Z,5.07
2017-07-04T19:13:55.891Z,5.15
2017-07-04T19:14:58.584Z,5.06
2017-07-04T19:16:01.262Z,5.10
2017-07-04T19:17:03.937Z,5.20
2017-07-04T19:18:06.650Z,5.15
2017-07-04T19:19:09.350Z,5.15
2017-07-04T19:20:11.924Z,5.17
2017-07-04T19:21:14.512Z,4.99
2017-07-04T19:22:17.153Z,4.99
2017-07-04T19:23:19.849Z,5.10
2017-07-04T19:24:22.431Z,5.09
2017-07-04T19:25:24.968Z,5.07
2017-07-04T19:26:27.555Z,5.09
2017-07-04T19:27:30.154Z,5.03
2017-07-04T19:28:32.704Z,4.96
2017-07-04T19:29:35.220Z,4.94
2017-07-04T19:30:37.800Z,4.94
2017-07-04T19:31:40.355Z,4.86
2017-07-04T19:32:42.882Z,4.84
2017-07-04T19:33:45.371Z,4.84
2017-07-04T19:34:47.933Z,4.67
2017-07-04T19:35:50.471Z,4.77
2017-07-04T19:36:53.142Z,4.75
2017-07-04T19:37:55.661Z,4.63
2017-07-04T19:38:58.237Z,4.73
2017-07-04T19:40:00.809Z,4.72
2017-07-04T19:41:03.478Z,4.55
2017-07-04T19:42:06.148Z,4.58
2017-07-04T19:43:08.819Z,4.58
2017-07-04T19:44:11.487Z,4.66
2017-07-04T19:45:14.170Z,4.62
2017-07-04T19:46:16.763Z,4.62
2017-07-04T19:47:19.366Z,4.54
2017-07-04T19:48:21.864Z,4.45
2017-07-04T19:49:24.448Z,4.48
2017-07-04T19:50:27.056Z,4.47
2017-07-04T19:51:29.625Z,4.44
2017-07-04T19:52:32.198Z,4.48
2017-07-04T19:53:34.933Z,4.40
2017-07-04T19:54:37.641Z,4.32
2017-07-04T19:55:40.240Z,4.27
2017-07-04T19:56:42.917Z,4.32
2017-07-04T19:57:45.527Z,4.27
2017-07-04T19:58:48.139Z,4.29
2017-07-04T19:59:50.790Z,4.27
2017-07-04T20:00:53.427Z,4.26
2017-07-04T20:01:55.995Z,4.23
2017-07-04T20:02:58.672Z,4.29
2017-07-04T20:04:01.345Z,4.20
2017-07-04T20:05:04.922Z,4.27
2017-07-04T20:06:07.603Z,4.20
2017-07-04T20:07:10.204Z,4.06
2017-07-04T20:08:12.895Z,4.09
2017-07-04T20:09:15.472Z,4.27
2017-07-04T20:10:18.144Z,4.24
2017-07-04T20:11:20.845Z,4.16
2017-07-04T20:12:23.512Z,4.30
2017-07-04T20:13:26.186Z,4.29
2017-07-04T20:14:28.685Z,4.36
2017-07-04T20:15:31.285Z,4.34
2017-07-04T20:16:33.870Z,4.37
2017-07-04T20:17:36.401Z,4.29
2017-07-04T20:18:39.078Z,4.26
2017-07-04T20:19:41.798Z,4.26
2017-07-04T20:20:44.367Z,4.20
2017-07-04T20:21:47.040Z,4.18
2017-07-04T20:22:49.691Z,4.02
2017-07-04T20:23:52.157Z,4.02
2017-07-04T20:24:54.665Z,3.80
2017-07-04T20:25:57.150Z,3.90
2017-07-04T20:26:59.736Z,3.86
2017-07-04T20:28:02.350Z,3.87
2017-07-04T20:29:05.081Z,3.94
2017-07-04T20:30:07.627Z,3.91
2017-07-04T20:31:10.301Z,3.80
2017-07-04T20:32:13.753Z,3.83
2017-07-04T20:33:16.410Z,3.87
2017-07-04T20:34:19.091Z,3.84
2017-07-04T20:35:21.733Z,3.80
2017-07-04T20:36:24.249Z,3.78
2017-07-04T20:37:26.930Z,3.86
2017-07-04T20:38:29.548Z,3.73
2017-07-04T20:39:32.214Z,3.78
2017-07-04T20:40:34.882Z,3.78
2017-07-04T20:41:37.551Z,3.78
2017-07-04T20:42:40.229Z,3.75
2017-07-04T20:43:42.800Z,3.62
2017-07-04T20:44:45.514Z,3.69
2017-07-04T20:45:48.081Z,3.70
2017-07-04T20:46:50.699Z,3.79
2017-07-04T20:47:53.271Z,3.87
2017-07-04T20:48:55.924Z,3.88
2017-07-04T20:49:58.494Z,3.80
2017-07-04T20:51:01.129Z,3.83
2017-07-04T20:52:03.758Z,3.88
2017-07-04T20:53:06.406Z,3.83
2017-07-04T20:54:08.942Z,3.70
2017-07-04T20:55:11.616Z,3.84
2017-07-04T20:56:14.203Z,3.90
2017-07-04T20:57:16.794Z,3.86
2017-07-04T20:58:19.328Z,3.86
2017-07-04T20:59:21.942Z,3.86
2017-07-04T21:00:24.435Z,3.91
2017-07-04T21:01:26.988Z,3.86
2017-07-04T21:02:29.576Z,4.02
2017-07-04T21:03:32.065Z,3.97
2017-07-04T21:04:34.662Z,3.98
2017-07-04T21:05:37.406Z,3.84
2017-07-04T21:06:39.874Z,3.88
2017-07-04T21:07:42.506Z,3.78
2017-07-04T21:08:45.203Z,3.80
2017-07-04T21:09:47.899Z,3.73
2017-07-04T21:10:50.592Z,3.80
2017-07-04T21:11:53.286Z,3.75
2017-07-04T21:13:09.875Z,3.72
2017-07-04T21:14:28.885Z,3.70
2017-07-04T21:15:57.913Z,3.72
2017-07-04T21:17:00.978Z,3.60
2017-07-04T21:18:04.008Z,3.60
2017-07-04T21:19:06.604Z,3.60
2017-07-04T21:20:11.257Z,3.54
2017-07-04T21:21:13.969Z,3.55
2017-07-04T21:22:16.736Z,3.52
2017-07-04T21:23:21.649Z,3.52
2017-07-04T21:24:24.371Z,3.52
2017-07-04T21:25:27.940Z,3.60
2017-07-04T21:26:32.366Z,3.69
2017-07-04T21:27:39.527Z,3.58
2017-07-04T21:28:42.182Z,3.57
2017-07-04T21:29:44.978Z,3.57
2017-07-04T21:30:47.599Z,3.57
2017-07-04T21:31:51.831Z,3.68
2017-07-04T21:32:54.787Z,3.58
2017-07-04T21:33:57.610Z,3.75
2017-07-04T21:35:00.454Z,3.72
2017-07-04T21:36:03.158Z,3.72
2017-07-04T21:37:06.011Z,3.68
2017-07-04T21:38:08.806Z,3.75
2017-07-04T21:39:11.453Z,3.80
2017-07-04T21:40:14.210Z,3.84
2017-07-04T21:41:17.072Z,3.83
2017-07-04T21:42:19.870Z,3.79
2017-07-04T21:43:22.632Z,3.78
2017-07-04T21:44:25.178Z,3.70
2017-07-04T21:45:29.738Z,3.75
2017-07-04T21:46:32.500Z,3.78
2017-07-04T21:47:35.234Z,3.79
2017-07-04T21:48:37.949Z,3.75
2017-07-04T21:49:40.603Z,3.72
2017-07-04T21:50:43.248Z,3.72
2017-07-04T21:51:48.867Z,3.55
2017-07-04T21:52:51.620Z,3.54
2017-07-04T21:53:54.518Z,3.57
2017-07-04T21:54:57.181Z,3.52
2017-07-04T21:55:59.956Z,3.51
2017-07-04T21:57:02.670Z,3.58
2017-07-04T21:58:05.342Z,3.57
2017-07-04T21:59:08.893Z,3.60
2017-07-04T22:00:11.800Z,3.58
2017-07-04T22:01:14.639Z,3.52
2017-07-04T22:02:17.407Z,3.58
2017-07-04T22:03:20.266Z,3.66
2017-07-04T22:04:23.156Z,3.69
2017-07-04T22:05:26.106Z,3.70
2017-07-04T22:06:28.969Z,3.73
2017-07-04T22:07:31.685Z,3.72
2017-07-04T22:08:34.574Z,3.65
2017-07-04T22:09:37.229Z,3.78
2017-07-04T22:10:39.808Z,3.68
2017-07-04T22:11:42.606Z,3.65
2017-07-04T22:12:45.302Z,3.72
2017-07-04T22:13:48.001Z,3.61
2017-07-04T22:14:50.533Z,3.43
2017-07-04T22:15:53.166Z,3.50
2017-07-04T22:16:55.759Z,3.52
2017-07-04T22:17:58.373Z,3.52
2017-07-04T22:19:01.886Z,3.58
2017-07-04T22:20:04.809Z,3.65
2017-07-04T22:21:07.656Z,3.55
2017-07-04T22:22:10.500Z,3.52
2017-07-04T22:23:13.441Z,3.66
2017-07-04T22:24:16.320Z,3.52
2017-07-04T22:25:19.002Z,3.57
2017-07-04T22:26:21.726Z,3.60
2017-07-04T22:27:24.419Z,3.55
2017-07-04T22:28:27.188Z,3.52
2017-07-04T22:29:29.942Z,3.60
2017-07-04T22:30:32.503Z,3.61
2017-07-04T22:31:37.920Z,3.43
2017-07-04T22:32:43.335Z,3.54
2017-07-04T22:33:46.075Z,3.45
2017-07-04T22:34:48.991Z,3.43
2017-07-04T22:35:54.374Z,3.42
2017-07-04T22:36:59.977Z,3.24
2017-07-04T22:38:02.820Z,3.28
2017-07-04T22:39:06.079Z,3.21
2017-07-04T22:40:11.494Z,3.20
2017-07-04T22:41:14.262Z,3.14
2017-07-04T22:42:16.862Z,3.14
2017-07-04T22:43:19.353Z,3.13
2017-07-04T22:44:22.043Z,3.18
2017-07-04T22:45:26.537Z,3.14
2017-07-04T22:46:29.082Z,3.20
2017-07-04T22:47:31.833Z,3.10
2017-07-04T22:48:34.537Z,3.02
2017-07-04T22:49:38.974Z,3.03
2017-07-04T22:50:41.779Z,3.08
2017-07-04T22:51:44.372Z,3.03
2017-07-04T22:52:47.069Z,3.02
2017-07-04T22:53:49.766Z,2.93
2017-07-04T22:54:52.343Z,3.06
2017-07-04T22:55:55.021Z,3.05
2017-07-04T22:56:58.068Z,2.97
2017-07-04T22:58:00.705Z,2.97
2017-07-04T22:59:04.193Z,2.96
2017-07-04T23:00:06.868Z,3.00
2017-07-04T23:01:12.643Z,2.89
2017-07-04T23:02:15.454Z,2.97
2017-07-04T23:03:18.170Z,2.89
2017-07-04T23:04:20.826Z,2.85
2017-07-04T23:05:23.478Z,2.90
2017-07-04T23:06:26.018Z,2.89
2017-07-04T23:07:29.528Z,2.90
2017-07-04T23:08:32.311Z,2.89
2017-07-04T23:09:35.181Z,2.89
2017-07-04T23:10:37.865Z,2.96
2017-07-04T23:11:40.525Z,2.97
2017-07-04T23:12:43.164Z,3.00
2017-07-04T23:13:45.974Z,2.93
2017-07-04T23:14:48.711Z,2.89
2017-07-04T23:15:51.467Z,2.89
2017-07-04T23:16:55.081Z,2.84
2017-07-04T23:17:57.632Z,2.87
2017-07-04T23:19:00.246Z,2.87
2017-07-04T23:20:02.947Z,2.93
2017-07-04T23:21:05.648Z,2.85
2017-07-04T23:22:10.023Z,2.96
2017-07-04T23:23:12.747Z,2.93
2017-07-04T23:24:15.483Z,2.95
2017-07-04T23:25:18.215Z,2.84
2017-07-04T23:26:21.020Z,2.84
2017-07-04T23:27:23.714Z,2.85
2017-07-04T23:28:26.333Z,2.92
2017-07-04T23:29:31.895Z,2.84
2017-07-04T23:30:34.608Z,2.79
2017-07-04T23:31:37.299Z,2.78
2017-07-04T23:32:40.227Z,2.90
2017-07-04T23:33:42.958Z,2.84
2017-07-04T23:34:45.735Z,2.84
2017-07-04T23:35:48.765Z,2.74
2017-07-04T23:36:51.463Z,2.69
2017-07-04T23:37:54.420Z,2.71
2017-07-04T23:38:57.380Z,2.75
2017-07-04T23:39:59.970Z,2.78
2017-07-04T23:41:02.675Z,2.77
2017-07-04T23:42:07.142Z,2.85
2017-07-04T23:43:09.956Z,2.79
2017-07-04T23:44:12.805Z,2.79
2017-07-04T23:45:15.655Z,2.81
2017-07-04T23:46:18.686Z,2.84
2017-07-04T23:47:21.585Z,2.79
2017-07-04T23:48:24.540Z,2.78
2017-07-04T23:49:29.122Z,2.82
2017-07-04T23:50:31.642Z,2.79
2017-07-04T23:51:34.363Z,2.81
2017-07-04T23:52:36.943Z,2.81
2017-07-04T23:53:41.379Z,2.81
2017-07-04T23:54:43.982Z,2.85
2017-07-04T23:55:46.574Z,2.78
2017-07-04T23:56:51.040Z,2.74
2017-07-04T23:57:53.888Z,2.78
2017-07-04T23:58:56.623Z,2.72
2017-07-04T23:59:59.487Z,2.71
